sensor_id;sensor_type;location;lat;lon;timestamp;temperature;humidity
20744;DHT22;56303;52.160;-0.428;2023-02-28T00:00:35;5.70;99.90
20744;DHT22;56303;52.160;-0.428;2023-02-28T00:03:02;5.60;99.90
20744;DHT22;56303;52.160;-0.428;2023-02-28T00:05:30;5.40;99.90
20744;DHT22;56303;52.160;-0.428;2023-02-28T00:07:57;5.40;99.90
20744;DHT22;56303;52.160;-0.428;2023-02-28T00:10:27;5.70;99.90
20744;DHT22;56303;52.160;-0.428;2023-02-28T00:12:55;5.70;99.90
20744;DHT22;56303;52.160;-0.428;2023-02-28T00:15:23;5.60;99.90
20744;DHT22;56303;52.160;-0.428;2023-02-28T00:17:50;5.60;99.90
20744;DHT22;56303;52.160;-0.428;2023-02-28T00:20:18;5.70;99.90
20744;DHT22;56303;52.160;-0.428;2023-02-28T00:22:48;5.70;99.90
20744;DHT22;56303;52.160;-0.428;2023-02-28T00:25:18;5.60;99.90
20744;DHT22;56303;52.160;-0.428;2023-02-28T00:27:46;5.40;99.90
20744;DHT22;56303;52.160;-0.428;2023-02-28T00:30:18;5.10;99.90
20744;DHT22;56303;52.160;-0.428;2023-02-28T00:32:45;5.10;99.90
20744;DHT22;56303;52.160;-0.428;2023-02-28T00:35:12;5.00;99.90
20744;DHT22;56303;52.160;-0.428;2023-02-28T00:37:39;5.10;99.90
20744;DHT22;56303;52.160;-0.428;2023-02-28T00:40:07;5.20;99.90
20744;DHT22;56303;52.160;-0.428;2023-02-28T00:42:35;5.30;99.90
20744;DHT22;56303;52.160;-0.428;2023-02-28T00:45:03;5.30;99.90
20744;DHT22;56303;52.160;-0.428;2023-02-28T00:47:31;5.30;99.90
20744;DHT22;56303;52.160;-0.428;2023-02-28T00:49:58;5.90;99.90
20744;DHT22;56303;52.160;-0.428;2023-02-28T00:52:25;6.00;99.90
20744;DHT22;56303;52.160;-0.428;2023-02-28T00:54:53;5.60;99.90
20744;DHT22;56303;52.160;-0.428;2023-02-28T00:57:19;6.00;99.90
20744;DHT22;56303;52.160;-0.428;2023-02-28T00:59:46;6.00;99.90
20744;DHT22;56303;52.160;-0.428;2023-02-28T01:02:13;4.40;99.90
20744;DHT22;56303;52.160;-0.428;2023-02-28T01:04:41;5.80;99.90
20744;DHT22;56303;52.160;-0.428;2023-02-28T01:07:07;5.50;99.90
20744;DHT22;56303;52.160;-0.428;2023-02-28T01:09:34;5.40;99.90
20744;DHT22;56303;52.160;-0.428;2023-02-28T01:12:01;5.20;99.90
20744;DHT22;56303;52.160;-0.428;2023-02-28T01:14:28;5.40;99.90
20744;DHT22;56303;52.160;-0.428;2023-02-28T01:16:55;5.30;99.90
20744;DHT22;56303;52.160;-0.428;2023-02-28T01:19:21;5.40;99.90
20744;DHT22;56303;52.160;-0.428;2023-02-28T01:21:48;5.30;99.90
20744;DHT22;56303;52.160;-0.428;2023-02-28T01:24:15;5.30;99.90
20744;DHT22;56303;52.160;-0.428;2023-02-28T01:26:41;5.30;99.90
20744;DHT22;56303;52.160;-0.428;2023-02-28T01:29:08;5.40;99.90
20744;DHT22;56303;52.160;-0.428;2023-02-28T01:31:35;5.40;99.90
20744;DHT22;56303;52.160;-0.428;2023-02-28T01:34:02;6.20;99.90
20744;DHT22;56303;52.160;-0.428;2023-02-28T01:36:29;5.50;99.90
20744;DHT22;56303;52.160;-0.428;2023-02-28T01:38:56;5.50;99.90
20744;DHT22;56303;52.160;-0.428;2023-02-28T01:41:26;5.30;99.90
20744;DHT22;56303;52.160;-0.428;2023-02-28T01:46:30;5.40;99.90
20744;DHT22;56303;52.160;-0.428;2023-02-28T01:49:00;5.20;99.90
20744;DHT22;56303;52.160;-0.428;2023-02-28T01:51:41;5.20;99.90
20744;DHT22;56303;52.160;-0.428;2023-02-28T01:54:16;5.10;99.90
20744;DHT22;56303;52.160;-0.428;2023-02-28T01:56:51;5.20;99.90
20744;DHT22;56303;52.160;-0.428;2023-02-28T01:59:29;5.10;99.90
20744;DHT22;56303;52.160;-0.428;2023-02-28T02:01:58;5.20;99.90
20744;DHT22;56303;52.160;-0.428;2023-02-28T02:04:37;4.90;99.90
20744;DHT22;56303;52.160;-0.428;2023-02-28T02:07:04;4.90;99.90
20744;DHT22;56303;52.160;-0.428;2023-02-28T02:09:31;5.10;99.90
20744;DHT22;56303;52.160;-0.428;2023-02-28T02:12:01;5.30;99.90
20744;DHT22;56303;52.160;-0.428;2023-02-28T02:14:56;5.40;99.90
20744;DHT22;56303;52.160;-0.428;2023-02-28T02:17:44;5.40;99.90
20744;DHT22;56303;52.160;-0.428;2023-02-28T02:20:45;5.40;99.90
20744;DHT22;56303;52.160;-0.428;2023-02-28T02:29:21;5.20;99.90
20744;DHT22;56303;52.160;-0.428;2023-02-28T02:34:50;5.30;99.90
20744;DHT22;56303;52.160;-0.428;2023-02-28T02:37:39;5.10;99.90
20744;DHT22;56303;52.160;-0.428;2023-02-28T02:40:20;4.90;99.90
20744;DHT22;56303;52.160;-0.428;2023-02-28T02:43:16;4.70;99.90
20744;DHT22;56303;52.160;-0.428;2023-02-28T02:45:49;4.60;99.90
20744;DHT22;56303;52.160;-0.428;2023-02-28T02:48:20;4.70;99.90
20744;DHT22;56303;52.160;-0.428;2023-02-28T02:50:56;4.70;99.90
20744;DHT22;56303;52.160;-0.428;2023-02-28T02:53:36;5.10;99.90
20744;DHT22;56303;52.160;-0.428;2023-02-28T02:56:06;4.70;99.90
20744;DHT22;56303;52.160;-0.428;2023-02-28T02:58:40;4.70;99.90
20744;DHT22;56303;52.160;-0.428;2023-02-28T03:01:12;5.40;99.90
20744;DHT22;56303;52.160;-0.428;2023-02-28T03:03:41;4.90;99.90
20744;DHT22;56303;52.160;-0.428;2023-02-28T03:06:08;5.00;99.90
20744;DHT22;56303;52.160;-0.428;2023-02-28T03:08:37;4.90;99.90
20744;DHT22;56303;52.160;-0.428;2023-02-28T03:11:14;4.80;99.90
20744;DHT22;56303;52.160;-0.428;2023-02-28T03:16:33;4.60;99.90
20744;DHT22;56303;52.160;-0.428;2023-02-28T03:22:24;4.70;99.90
20744;DHT22;56303;52.160;-0.428;2023-02-28T03:27:29;4.90;99.90
20744;DHT22;56303;52.160;-0.428;2023-02-28T03:30:23;4.90;99.90
20744;DHT22;56303;52.160;-0.428;2023-02-28T03:32:57;5.00;99.90
20744;DHT22;56303;52.160;-0.428;2023-02-28T03:35:29;5.20;99.90
20744;DHT22;56303;52.160;-0.428;2023-02-28T03:38:05;5.30;99.90
20744;DHT22;56303;52.160;-0.428;2023-02-28T03:40:36;5.30;99.90
20744;DHT22;56303;52.160;-0.428;2023-02-28T03:43:09;5.30;99.90
20744;DHT22;56303;52.160;-0.428;2023-02-28T03:45:39;5.30;99.90
20744;DHT22;56303;52.160;-0.428;2023-02-28T03:48:13;5.40;99.90
20744;DHT22;56303;52.160;-0.428;2023-02-28T03:50:48;5.30;99.90
20744;DHT22;56303;52.160;-0.428;2023-02-28T03:53:57;5.30;99.90
20744;DHT22;56303;52.160;-0.428;2023-02-28T03:56:33;5.50;99.90
20744;DHT22;56303;52.160;-0.428;2023-02-28T03:59:06;5.70;99.90
20744;DHT22;56303;52.160;-0.428;2023-02-28T04:01:36;5.50;99.90
20744;DHT22;56303;52.160;-0.428;2023-02-28T04:04:05;5.60;99.90
20744;DHT22;56303;52.160;-0.428;2023-02-28T04:06:33;5.70;99.90
20744;DHT22;56303;52.160;-0.428;2023-02-28T04:09:01;5.60;99.90
20744;DHT22;56303;52.160;-0.428;2023-02-28T04:11:37;5.50;99.90
20744;DHT22;56303;52.160;-0.428;2023-02-28T04:14:06;5.40;99.90
20744;DHT22;56303;52.160;-0.428;2023-02-28T04:16:36;5.60;99.90
20744;DHT22;56303;52.160;-0.428;2023-02-28T04:19:05;5.80;99.90
20744;DHT22;56303;52.160;-0.428;2023-02-28T04:21:42;5.60;99.90
20744;DHT22;56303;52.160;-0.428;2023-02-28T04:24:14;5.70;99.90
20744;DHT22;56303;52.160;-0.428;2023-02-28T04:26:43;6.00;99.90
20744;DHT22;56303;52.160;-0.428;2023-02-28T04:29:12;5.80;99.90
20744;DHT22;56303;52.160;-0.428;2023-02-28T04:31:40;5.70;99.90
20744;DHT22;56303;52.160;-0.428;2023-02-28T04:34:07;5.60;99.90
20744;DHT22;56303;52.160;-0.428;2023-02-28T04:36:34;5.80;99.90
20744;DHT22;56303;52.160;-0.428;2023-02-28T04:39:01;5.80;99.90
20744;DHT22;56303;52.160;-0.428;2023-02-28T04:41:28;5.90;99.90
20744;DHT22;56303;52.160;-0.428;2023-02-28T04:43:58;6.10;99.90
20744;DHT22;56303;52.160;-0.428;2023-02-28T04:46:25;5.90;99.90
20744;DHT22;56303;52.160;-0.428;2023-02-28T04:48:51;6.00;99.90
20744;DHT22;56303;52.160;-0.428;2023-02-28T04:51:20;6.10;99.90
20744;DHT22;56303;52.160;-0.428;2023-02-28T04:53:47;6.00;99.90
20744;DHT22;56303;52.160;-0.428;2023-02-28T04:56:16;6.50;99.90
20744;DHT22;56303;52.160;-0.428;2023-02-28T04:58:43;6.10;99.90
20744;DHT22;56303;52.160;-0.428;2023-02-28T05:01:31;5.90;99.90
20744;DHT22;56303;52.160;-0.428;2023-02-28T05:04:01;6.00;99.90
20744;DHT22;56303;52.160;-0.428;2023-02-28T05:06:31;6.30;99.90
20744;DHT22;56303;52.160;-0.428;2023-02-28T05:08:58;6.30;99.90
20744;DHT22;56303;52.160;-0.428;2023-02-28T05:11:29;7.40;99.90
20744;DHT22;56303;52.160;-0.428;2023-02-28T05:14:02;6.40;99.90
20744;DHT22;56303;52.160;-0.428;2023-02-28T05:16:30;6.50;99.90
20744;DHT22;56303;52.160;-0.428;2023-02-28T05:18:58;6.30;99.90
20744;DHT22;56303;52.160;-0.428;2023-02-28T05:21:28;6.10;99.90
20744;DHT22;56303;52.160;-0.428;2023-02-28T05:23:58;6.00;99.90
20744;DHT22;56303;52.160;-0.428;2023-02-28T05:26:26;5.90;99.90
20744;DHT22;56303;52.160;-0.428;2023-02-28T05:28:54;5.80;99.90
20744;DHT22;56303;52.160;-0.428;2023-02-28T05:31:21;5.70;99.90
20744;DHT22;56303;52.160;-0.428;2023-02-28T05:33:48;5.80;99.90
20744;DHT22;56303;52.160;-0.428;2023-02-28T05:36:15;5.80;99.90
20744;DHT22;56303;52.160;-0.428;2023-02-28T05:38:42;5.70;99.90
20744;DHT22;56303;52.160;-0.428;2023-02-28T05:41:10;6.00;99.90
20744;DHT22;56303;52.160;-0.428;2023-02-28T05:43:37;5.90;99.90
20744;DHT22;56303;52.160;-0.428;2023-02-28T05:46:06;6.00;99.90
20744;DHT22;56303;52.160;-0.428;2023-02-28T05:48:35;7.60;99.90
20744;DHT22;56303;52.160;-0.428;2023-02-28T05:51:02;5.90;99.90
20744;DHT22;56303;52.160;-0.428;2023-02-28T05:53:29;5.90;99.90
20744;DHT22;56303;52.160;-0.428;2023-02-28T05:55:57;6.10;99.90
20744;DHT22;56303;52.160;-0.428;2023-02-28T05:58:24;6.10;99.90
20744;DHT22;56303;52.160;-0.428;2023-02-28T06:00:58;6.20;99.90
20744;DHT22;56303;52.160;-0.428;2023-02-28T06:03:26;6.40;99.90
20744;DHT22;56303;52.160;-0.428;2023-02-28T06:05:53;6.40;99.90
20744;DHT22;56303;52.160;-0.428;2023-02-28T06:08:20;6.40;99.90
20744;DHT22;56303;52.160;-0.428;2023-02-28T06:10:47;6.30;99.90
20744;DHT22;56303;52.160;-0.428;2023-02-28T06:13:14;6.30;99.90
20744;DHT22;56303;52.160;-0.428;2023-02-28T06:15:41;6.30;99.90
20744;DHT22;56303;52.160;-0.428;2023-02-28T06:18:08;6.30;99.90
20744;DHT22;56303;52.160;-0.428;2023-02-28T06:20:35;6.30;99.90
20744;DHT22;56303;52.160;-0.428;2023-02-28T06:23:03;6.20;99.90
20744;DHT22;56303;52.160;-0.428;2023-02-28T06:25:30;6.30;99.90
20744;DHT22;56303;52.160;-0.428;2023-02-28T06:27:56;5.20;99.90
20744;DHT22;56303;52.160;-0.428;2023-02-28T06:30:23;6.40;99.90
20744;DHT22;56303;52.160;-0.428;2023-02-28T06:32:53;6.30;99.90
20744;DHT22;56303;52.160;-0.428;2023-02-28T06:35:21;6.50;99.90
20744;DHT22;56303;52.160;-0.428;2023-02-28T06:37:48;6.00;99.90
20744;DHT22;56303;52.160;-0.428;2023-02-28T06:40:15;5.80;99.90
20744;DHT22;56303;52.160;-0.428;2023-02-28T06:42:42;5.90;99.90
20744;DHT22;56303;52.160;-0.428;2023-02-28T06:45:10;5.90;99.90
20744;DHT22;56303;52.160;-0.428;2023-02-28T06:47:41;6.00;99.90
20744;DHT22;56303;52.160;-0.428;2023-02-28T06:50:10;5.90;99.90
20744;DHT22;56303;52.160;-0.428;2023-02-28T06:52:38;6.10;99.90
20744;DHT22;56303;52.160;-0.428;2023-02-28T06:55:06;6.30;99.90
20744;DHT22;56303;52.160;-0.428;2023-02-28T06:57:35;6.40;99.90
20744;DHT22;56303;52.160;-0.428;2023-02-28T07:00:07;6.40;99.90
20744;DHT22;56303;52.160;-0.428;2023-02-28T07:02:36;6.40;99.90
20744;DHT22;56303;52.160;-0.428;2023-02-28T07:05:05;6.40;99.90
20744;DHT22;56303;52.160;-0.428;2023-02-28T07:07:33;6.50;99.90
20744;DHT22;56303;52.160;-0.428;2023-02-28T07:10:00;6.60;99.90
20744;DHT22;56303;52.160;-0.428;2023-02-28T07:12:26;6.70;99.90
20744;DHT22;56303;52.160;-0.428;2023-02-28T07:14:53;7.10;99.90
20744;DHT22;56303;52.160;-0.428;2023-02-28T07:17:22;7.10;99.90
20744;DHT22;56303;52.160;-0.428;2023-02-28T07:19:49;7.00;99.90
20744;DHT22;56303;52.160;-0.428;2023-02-28T07:22:16;7.20;99.90
20744;DHT22;56303;52.160;-0.428;2023-02-28T07:24:42;7.10;99.90
20744;DHT22;56303;52.160;-0.428;2023-02-28T07:27:10;7.30;99.90
20744;DHT22;56303;52.160;-0.428;2023-02-28T07:29:37;7.60;99.90
20744;DHT22;56303;52.160;-0.428;2023-02-28T07:32:04;7.70;99.90
20744;DHT22;56303;52.160;-0.428;2023-02-28T07:34:31;7.80;99.90
20744;DHT22;56303;52.160;-0.428;2023-02-28T07:36:58;8.00;99.90
20744;DHT22;56303;52.160;-0.428;2023-02-28T07:39:25;8.00;99.90
20744;DHT22;56303;52.160;-0.428;2023-02-28T07:41:52;7.90;99.90
20744;DHT22;56303;52.160;-0.428;2023-02-28T07:44:19;7.80;99.90
20744;DHT22;56303;52.160;-0.428;2023-02-28T07:46:45;7.60;99.90
20744;DHT22;56303;52.160;-0.428;2023-02-28T07:49:12;7.60;99.90
20744;DHT22;56303;52.160;-0.428;2023-02-28T07:51:39;7.60;99.90
20744;DHT22;56303;52.160;-0.428;2023-02-28T07:54:06;7.70;99.90
20744;DHT22;56303;52.160;-0.428;2023-02-28T07:56:33;7.50;99.90
20744;DHT22;56303;52.160;-0.428;2023-02-28T07:59:00;7.50;99.90
20744;DHT22;56303;52.160;-0.428;2023-02-28T08:01:28;7.20;99.90
20744;DHT22;56303;52.160;-0.428;2023-02-28T08:03:55;7.00;99.90
20744;DHT22;56303;52.160;-0.428;2023-02-28T08:06:24;6.90;99.90
20744;DHT22;56303;52.160;-0.428;2023-02-28T08:08:52;7.00;99.90
20744;DHT22;56303;52.160;-0.428;2023-02-28T08:11:19;7.00;99.90
20744;DHT22;56303;52.160;-0.428;2023-02-28T08:13:46;6.70;99.90
20744;DHT22;56303;52.160;-0.428;2023-02-28T08:16:13;6.50;99.90
20744;DHT22;56303;52.160;-0.428;2023-02-28T08:18:44;6.50;99.90
20744;DHT22;56303;52.160;-0.428;2023-02-28T08:21:11;6.80;99.90
20744;DHT22;56303;52.160;-0.428;2023-02-28T08:23:38;6.90;99.90
20744;DHT22;56303;52.160;-0.428;2023-02-28T08:26:06;9.10;99.90
20744;DHT22;56303;52.160;-0.428;2023-02-28T08:28:33;7.60;99.90
20744;DHT22;56303;52.160;-0.428;2023-02-28T08:31:00;7.70;99.90
20744;DHT22;56303;52.160;-0.428;2023-02-28T08:33:27;7.80;99.90
20744;DHT22;56303;52.160;-0.428;2023-02-28T08:35:55;7.30;99.90
20744;DHT22;56303;52.160;-0.428;2023-02-28T08:38:23;7.30;99.90
20744;DHT22;56303;52.160;-0.428;2023-02-28T08:40:56;7.40;99.90
20744;DHT22;56303;52.160;-0.428;2023-02-28T08:43:23;7.30;99.90
20744;DHT22;56303;52.160;-0.428;2023-02-28T08:45:54;7.20;99.90
20744;DHT22;56303;52.160;-0.428;2023-02-28T08:48:27;7.00;99.90
20744;DHT22;56303;52.160;-0.428;2023-02-28T08:51:01;7.30;99.90
20744;DHT22;56303;52.160;-0.428;2023-02-28T08:53:34;7.40;99.90
20744;DHT22;56303;52.160;-0.428;2023-02-28T08:56:05;7.70;99.90
20744;DHT22;56303;52.160;-0.428;2023-02-28T08:58:33;8.00;99.90
20744;DHT22;56303;52.160;-0.428;2023-02-28T09:01:07;8.20;99.90
20744;DHT22;56303;52.160;-0.428;2023-02-28T09:03:35;8.30;99.90
20744;DHT22;56303;52.160;-0.428;2023-02-28T09:06:02;7.80;99.90
20744;DHT22;56303;52.160;-0.428;2023-02-28T09:08:30;7.90;99.90
20744;DHT22;56303;52.160;-0.428;2023-02-28T09:10:57;7.50;99.90
20744;DHT22;56303;52.160;-0.428;2023-02-28T09:13:28;7.60;99.90
20744;DHT22;56303;52.160;-0.428;2023-02-28T09:15:58;7.50;99.90
20744;DHT22;56303;52.160;-0.428;2023-02-28T09:18:26;7.60;99.90
20744;DHT22;56303;52.160;-0.428;2023-02-28T09:20:53;7.50;99.90
20744;DHT22;56303;52.160;-0.428;2023-02-28T09:23:20;7.30;99.90
20744;DHT22;56303;52.160;-0.428;2023-02-28T09:25:50;7.30;99.90
20744;DHT22;56303;52.160;-0.428;2023-02-28T09:28:18;7.40;99.90
20744;DHT22;56303;52.160;-0.428;2023-02-28T09:30:46;7.10;99.90
20744;DHT22;56303;52.160;-0.428;2023-02-28T09:33:14;7.30;99.90
20744;DHT22;56303;52.160;-0.428;2023-02-28T09:35:42;7.40;99.90
20744;DHT22;56303;52.160;-0.428;2023-02-28T09:38:10;7.80;99.90
20744;DHT22;56303;52.160;-0.428;2023-02-28T09:40:46;8.00;99.90
20744;DHT22;56303;52.160;-0.428;2023-02-28T09:43:17;8.20;99.90
20744;DHT22;56303;52.160;-0.428;2023-02-28T09:45:52;8.20;99.90
20744;DHT22;56303;52.160;-0.428;2023-02-28T09:48:37;8.20;99.90
20744;DHT22;56303;52.160;-0.428;2023-02-28T09:53:59;8.20;99.90
20744;DHT22;56303;52.160;-0.428;2023-02-28T09:56:38;8.30;99.90
20744;DHT22;56303;52.160;-0.428;2023-02-28T10:04:58;7.70;99.90
20744;DHT22;56303;52.160;-0.428;2023-02-28T10:07:50;7.80;99.90
20744;DHT22;56303;52.160;-0.428;2023-02-28T10:10:33;8.00;99.90
20744;DHT22;56303;52.160;-0.428;2023-02-28T10:13:06;8.00;99.90
20744;DHT22;56303;52.160;-0.428;2023-02-28T10:15:37;7.70;99.90
20744;DHT22;56303;52.160;-0.428;2023-02-28T10:18:30;7.40;99.90
20744;DHT22;56303;52.160;-0.428;2023-02-28T10:20:57;7.30;99.90
20744;DHT22;56303;52.160;-0.428;2023-02-28T10:23:35;7.60;99.90
20744;DHT22;56303;52.160;-0.428;2023-02-28T10:26:11;7.60;99.90
20744;DHT22;56303;52.160;-0.428;2023-02-28T10:28:40;7.50;99.90
20744;DHT22;56303;52.160;-0.428;2023-02-28T10:31:15;7.50;99.90
20744;DHT22;56303;52.160;-0.428;2023-02-28T10:33:44;7.40;99.90
20744;DHT22;56303;52.160;-0.428;2023-02-28T10:36:16;7.60;99.90
20744;DHT22;56303;52.160;-0.428;2023-02-28T10:38:45;7.70;99.90
20744;DHT22;56303;52.160;-0.428;2023-02-28T10:41:32;8.10;99.90
20744;DHT22;56303;52.160;-0.428;2023-02-28T10:44:29;7.80;99.90
20744;DHT22;56303;52.160;-0.428;2023-02-28T10:46:56;8.00;99.90
20744;DHT22;56303;52.160;-0.428;2023-02-28T10:49:27;8.20;99.90
20744;DHT22;56303;52.160;-0.428;2023-02-28T10:51:59;7.60;99.90
20744;DHT22;56303;52.160;-0.428;2023-02-28T10:54:35;7.60;99.90
20744;DHT22;56303;52.160;-0.428;2023-02-28T10:57:18;7.50;99.90
20744;DHT22;56303;52.160;-0.428;2023-02-28T10:59:46;7.70;99.90
20744;DHT22;56303;52.160;-0.428;2023-02-28T11:02:36;7.80;99.90
20744;DHT22;56303;52.160;-0.428;2023-02-28T11:05:35;7.60;99.90
20744;DHT22;56303;52.160;-0.428;2023-02-28T11:08:15;7.70;99.90
20744;DHT22;56303;52.160;-0.428;2023-02-28T11:11:00;7.60;99.90
20744;DHT22;56303;52.160;-0.428;2023-02-28T11:13:35;7.70;99.90
20744;DHT22;56303;52.160;-0.428;2023-02-28T11:16:07;7.60;99.90
20744;DHT22;56303;52.160;-0.428;2023-02-28T11:18:50;7.70;99.90
20744;DHT22;56303;52.160;-0.428;2023-02-28T11:24:06;7.70;99.90
20744;DHT22;56303;52.160;-0.428;2023-02-28T11:26:43;7.70;99.90
20744;DHT22;56303;52.160;-0.428;2023-02-28T11:29:17;7.60;99.90
20744;DHT22;56303;52.160;-0.428;2023-02-28T11:34:35;7.30;99.90
20744;DHT22;56303;52.160;-0.428;2023-02-28T11:37:04;7.50;99.90
20744;DHT22;56303;52.160;-0.428;2023-02-28T11:39:33;7.70;99.90
20744;DHT22;56303;52.160;-0.428;2023-02-28T11:42:12;7.60;99.90
20744;DHT22;56303;52.160;-0.428;2023-02-28T11:47:42;8.20;99.90
20744;DHT22;56303;52.160;-0.428;2023-02-28T11:50:26;9.80;99.90
20744;DHT22;56303;52.160;-0.428;2023-02-28T11:55:30;9.00;99.90
20744;DHT22;56303;52.160;-0.428;2023-02-28T12:08:49;8.10;99.90
20744;DHT22;56303;52.160;-0.428;2023-02-28T12:11:53;8.10;99.90
20744;DHT22;56303;52.160;-0.428;2023-02-28T12:14:48;8.20;99.90
20744;DHT22;56303;52.160;-0.428;2023-02-28T12:20:17;7.50;99.90
20744;DHT22;56303;52.160;-0.428;2023-02-28T12:25:36;8.20;99.90
20744;DHT22;56303;52.160;-0.428;2023-02-28T12:28:12;8.30;99.90
20744;DHT22;56303;52.160;-0.428;2023-02-28T12:30:57;8.40;99.90
20744;DHT22;56303;52.160;-0.428;2023-02-28T12:33:31;8.80;99.90
20744;DHT22;56303;52.160;-0.428;2023-02-28T12:36:05;9.10;99.90
20744;DHT22;56303;52.160;-0.428;2023-02-28T12:41:28;9.60;99.90
20744;DHT22;56303;52.160;-0.428;2023-02-28T12:47:04;9.60;99.90
20744;DHT22;56303;52.160;-0.428;2023-02-28T12:49:36;9.40;99.90
20744;DHT22;56303;52.160;-0.428;2023-02-28T12:52:05;9.50;99.90
20744;DHT22;56303;52.160;-0.428;2023-02-28T12:54:47;10.50;99.90
20744;DHT22;56303;52.160;-0.428;2023-02-28T12:57:41;9.40;99.90
20744;DHT22;56303;52.160;-0.428;2023-02-28T13:00:21;8.90;99.90
20744;DHT22;56303;52.160;-0.428;2023-02-28T13:06:55;8.80;99.90
20744;DHT22;56303;52.160;-0.428;2023-02-28T13:09:18;9.00;99.90
20744;DHT22;56303;52.160;-0.428;2023-02-28T13:11:51;9.40;99.90
20744;DHT22;56303;52.160;-0.428;2023-02-28T13:14:26;9.60;99.90
20744;DHT22;56303;52.160;-0.428;2023-02-28T13:22:11;9.40;99.90
20744;DHT22;56303;52.160;-0.428;2023-02-28T13:24:51;9.30;99.90
20744;DHT22;56303;52.160;-0.428;2023-02-28T13:27:24;9.30;99.90
20744;DHT22;56303;52.160;-0.428;2023-02-28T13:29:57;9.30;99.90
20744;DHT22;56303;52.160;-0.428;2023-02-28T13:39:56;10.00;99.90
20744;DHT22;56303;52.160;-0.428;2023-02-28T13:42:34;10.00;99.90
20744;DHT22;56303;52.160;-0.428;2023-02-28T13:47:39;9.40;99.90
20744;DHT22;56303;52.160;-0.428;2023-02-28T13:55:53;8.80;99.90
20744;DHT22;56303;52.160;-0.428;2023-02-28T14:01:16;8.90;99.90
20744;DHT22;56303;52.160;-0.428;2023-02-28T14:06:38;9.00;99.90
20744;DHT22;56303;52.160;-0.428;2023-02-28T14:09:34;10.20;99.90
20744;DHT22;56303;52.160;-0.428;2023-02-28T14:17:55;9.20;99.90
20744;DHT22;56303;52.160;-0.428;2023-02-28T14:20:27;9.30;99.90
20744;DHT22;56303;52.160;-0.428;2023-02-28T14:23:05;9.40;99.90
20744;DHT22;56303;52.160;-0.428;2023-02-28T14:31:25;9.50;99.90
20744;DHT22;56303;52.160;-0.428;2023-02-28T14:36:44;9.10;99.90
20744;DHT22;56303;52.160;-0.428;2023-02-28T14:39:16;9.20;99.90
20744;DHT22;56303;52.160;-0.428;2023-02-28T14:41:46;9.30;99.90
20744;DHT22;56303;52.160;-0.428;2023-02-28T14:44:24;9.20;99.90
20744;DHT22;56303;52.160;-0.428;2023-02-28T14:47:01;9.10;99.90
20744;DHT22;56303;52.160;-0.428;2023-02-28T14:49:44;9.40;99.90
20744;DHT22;56303;52.160;-0.428;2023-02-28T14:54:40;10.00;99.90
20744;DHT22;56303;52.160;-0.428;2023-02-28T14:57:22;10.00;99.90
20744;DHT22;56303;52.160;-0.428;2023-02-28T15:02:48;9.30;99.90
20744;DHT22;56303;52.160;-0.428;2023-02-28T15:07:44;9.10;99.90
20744;DHT22;56303;52.160;-0.428;2023-02-28T15:10:24;9.10;99.90
20744;DHT22;56303;52.160;-0.428;2023-02-28T15:13:06;8.90;99.90
20744;DHT22;56303;52.160;-0.428;2023-02-28T15:18:42;8.70;99.90
20744;DHT22;56303;52.160;-0.428;2023-02-28T15:21:13;8.70;99.90
20744;DHT22;56303;52.160;-0.428;2023-02-28T15:23:48;8.70;99.90
20744;DHT22;56303;52.160;-0.428;2023-02-28T15:26:20;8.80;99.90
20744;DHT22;56303;52.160;-0.428;2023-02-28T15:28:59;9.20;99.90
20744;DHT22;56303;52.160;-0.428;2023-02-28T15:31:39;9.10;99.90
20744;DHT22;56303;52.160;-0.428;2023-02-28T15:34:43;8.80;99.90
20744;DHT22;56303;52.160;-0.428;2023-02-28T15:43:39;8.70;99.90
20744;DHT22;56303;52.160;-0.428;2023-02-28T15:46:07;7.20;99.90
20744;DHT22;56303;52.160;-0.428;2023-02-28T15:48:55;8.80;99.90
20744;DHT22;56303;52.160;-0.428;2023-02-28T15:51:32;8.60;99.90
20744;DHT22;56303;52.160;-0.428;2023-02-28T15:54:02;8.60;99.90
20744;DHT22;56303;52.160;-0.428;2023-02-28T15:56:33;8.50;99.90
20744;DHT22;56303;52.160;-0.428;2023-02-28T15:59:02;8.40;99.90
20744;DHT22;56303;52.160;-0.428;2023-02-28T16:01:33;8.30;99.90
20744;DHT22;56303;52.160;-0.428;2023-02-28T16:04:06;8.40;99.90
20744;DHT22;56303;52.160;-0.428;2023-02-28T16:06:41;8.30;99.90
20744;DHT22;56303;52.160;-0.428;2023-02-28T16:09:11;8.40;99.90
20744;DHT22;56303;52.160;-0.428;2023-02-28T16:11:42;8.40;99.90
20744;DHT22;56303;52.160;-0.428;2023-02-28T16:14:18;8.50;99.90
20744;DHT22;56303;52.160;-0.428;2023-02-28T16:16:48;8.50;99.90
20744;DHT22;56303;52.160;-0.428;2023-02-28T16:19:17;8.50;99.90
20744;DHT22;56303;52.160;-0.428;2023-02-28T16:21:45;8.10;99.90
20744;DHT22;56303;52.160;-0.428;2023-02-28T16:24:12;8.00;99.90
20744;DHT22;56303;52.160;-0.428;2023-02-28T16:26:40;8.00;99.90
20744;DHT22;56303;52.160;-0.428;2023-02-28T16:29:10;7.90;99.90
20744;DHT22;56303;52.160;-0.428;2023-02-28T16:31:41;7.90;99.90
20744;DHT22;56303;52.160;-0.428;2023-02-28T16:34:07;7.90;99.90
20744;DHT22;56303;52.160;-0.428;2023-02-28T16:36:34;8.00;99.90
20744;DHT22;56303;52.160;-0.428;2023-02-28T16:39:01;8.00;99.90
20744;DHT22;56303;52.160;-0.428;2023-02-28T16:41:29;7.90;99.90
20744;DHT22;56303;52.160;-0.428;2023-02-28T16:43:59;8.00;99.90
20744;DHT22;56303;52.160;-0.428;2023-02-28T16:46:35;7.80;99.90
20744;DHT22;56303;52.160;-0.428;2023-02-28T16:49:02;7.90;99.90
20744;DHT22;56303;52.160;-0.428;2023-02-28T16:51:29;8.10;99.90
20744;DHT22;56303;52.160;-0.428;2023-02-28T16:53:59;7.90;99.90
20744;DHT22;56303;52.160;-0.428;2023-02-28T16:56:26;8.10;99.90
20744;DHT22;56303;52.160;-0.428;2023-02-28T16:58:55;7.90;99.90
20744;DHT22;56303;52.160;-0.428;2023-02-28T17:01:23;7.80;99.90
20744;DHT22;56303;52.160;-0.428;2023-02-28T17:03:50;8.00;99.90
20744;DHT22;56303;52.160;-0.428;2023-02-28T17:06:20;8.00;99.90
20744;DHT22;56303;52.160;-0.428;2023-02-28T17:08:50;8.20;99.90
20744;DHT22;56303;52.160;-0.428;2023-02-28T17:11:17;8.20;99.90
20744;DHT22;56303;52.160;-0.428;2023-02-28T17:13:45;8.10;99.90
20744;DHT22;56303;52.160;-0.428;2023-02-28T17:16:31;8.10;99.90
20744;DHT22;56303;52.160;-0.428;2023-02-28T17:19:01;8.10;99.90
20744;DHT22;56303;52.160;-0.428;2023-02-28T17:21:29;8.10;99.90
20744;DHT22;56303;52.160;-0.428;2023-02-28T17:24:00;8.00;99.90
20744;DHT22;56303;52.160;-0.428;2023-02-28T17:26:27;8.00;99.90
20744;DHT22;56303;52.160;-0.428;2023-02-28T17:28:56;7.90;99.90
20744;DHT22;56303;52.160;-0.428;2023-02-28T17:31:25;7.80;99.90
20744;DHT22;56303;52.160;-0.428;2023-02-28T17:33:54;7.90;99.90
20744;DHT22;56303;52.160;-0.428;2023-02-28T17:36:23;7.70;99.90
20744;DHT22;56303;52.160;-0.428;2023-02-28T17:38:54;7.80;99.90
20744;DHT22;56303;52.160;-0.428;2023-02-28T17:41:21;7.70;99.90
20744;DHT22;56303;52.160;-0.428;2023-02-28T17:43:48;7.60;99.90
20744;DHT22;56303;52.160;-0.428;2023-02-28T17:46:19;7.60;99.90
20744;DHT22;56303;52.160;-0.428;2023-02-28T17:48:49;7.20;99.90
20744;DHT22;56303;52.160;-0.428;2023-02-28T17:51:20;7.20;99.90
20744;DHT22;56303;52.160;-0.428;2023-02-28T17:53:47;7.10;99.90
20744;DHT22;56303;52.160;-0.428;2023-02-28T17:56:22;7.10;99.90
20744;DHT22;56303;52.160;-0.428;2023-02-28T17:58:51;7.10;99.90
20744;DHT22;56303;52.160;-0.428;2023-02-28T18:01:18;7.10;99.90